Time;durP1;ratioP1;P1;durP2;ratioP2;P2;SDS_P1;SDS_P2;PMS_P1;PMS_P2;Temp;Humidity;BMP_temperature;BMP_pressure;BME280_temperature;BME280_humidity;BME280_pressure;Samples;Min_cycle;Max_cycle;Signal;HPM_P1;HPM_P2
2023/03/10 03:04:52;;;;;;;7.90;4.00;;;;;;;11.54;79.51;99336.88;107353;1292;547954;-65
2023/03/10 03:07:18;;;;;;;6.20;3.50;;;;;;;14.57;58.34;99324.77;107655;1294;21991;-68
2023/03/10 03:09:44;;;;;;;8.40;3.20;;;;;;;15.06;54.90;99324.48;107693;1294;22648;-69
2023/03/10 03:12:10;;;;;;;6.80;4.20;;;;;;;15.27;53.43;99325.59;107541;1294;21990;-65
2023/03/10 03:14:40;;;;;;;5.80;3.90;;;;;;;15.42;52.29;99328.05;107799;1291;23666;-66
2023/03/10 03:17:06;;;;;;;8.60;4.50;;;;;;;15.51;51.36;99328.69;107649;1290;195671;-65
2023/03/10 03:19:32;;;;;;;10.30;3.70;;;;;;;15.55;50.92;99327.63;107808;1290;21996;-65
2023/03/10 03:21:59;;;;;;;5.50;3.30;;;;;;;15.55;50.90;99332.69;107777;1289;23629;-70
2023/03/10 03:24:25;;;;;;;7.90;3.30;;;;;;;15.58;50.55;99339.65;107839;1289;21995;-70
2023/03/10 03:26:51;;;;;;;10.00;3.40;;;;;;;15.59;50.34;99343.86;107930;1289;21981;-70
2023/03/10 03:29:16;;;;;;;7.40;3.50;;;;;;;15.59;50.16;99346.48;107926;1287;21992;-67
2023/03/10 03:31:42;;;;;;;7.10;3.40;;;;;;;15.59;49.95;99350.92;108021;1288;22004;-70
2023/03/10 03:34:08;;;;;;;6.30;2.90;;;;;;;15.59;49.53;99351.80;107959;1288;22195;-70
2023/03/10 03:36:36;;;;;;;4.80;3.00;;;;;;;15.57;49.44;99359.65;107997;1288;21993;-70
2023/03/10 03:39:05;;;;;;;7.10;3.30;;;;;;;15.56;49.33;99365.56;107105;1288;1004170;-70
2023/03/10 03:41:32;;;;;;;5.70;2.90;;;;;;;15.53;49.07;99366.59;107842;1289;21999;-66
2023/03/10 03:43:58;;;;;;;5.20;2.80;;;;;;;15.51;48.90;99369.70;107902;1288;22000;-67
2023/03/10 03:46:24;;;;;;;6.60;3.40;;;;;;;15.46;48.68;99371.88;107852;1288;21994;-67
2023/03/10 03:48:49;;;;;;;6.80;3.10;;;;;;;15.41;48.29;99375.46;107854;1286;22004;-70
2023/03/10 03:51:15;;;;;;;8.60;3.30;;;;;;;15.35;47.94;99373.65;107859;1288;21994;-70
2023/03/10 03:53:41;;;;;;;5.70;3.10;;;;;;;15.29;47.73;99376.05;107695;1289;22018;-69
2023/03/10 03:56:07;;;;;;;5.70;3.10;;;;;;;15.20;47.66;99381.08;107815;1288;22004;-70
2023/03/10 03:58:33;;;;;;;5.90;2.70;;;;;;;15.07;47.36;99384.69;107811;1288;21998;-70
2023/03/10 04:00:59;;;;;;;6.10;3.20;;;;;;;14.97;47.22;99384.27;107867;1285;21984;-67
2023/03/10 04:03:25;;;;;;;6.10;2.90;;;;;;;14.86;47.20;99385.83;107804;1288;23116;-70
2023/03/10 04:05:51;;;;;;;6.50;3.20;;;;;;;14.77;47.09;99392.23;107948;1288;22000;-67
2023/03/10 04:08:17;;;;;;;6.00;3.80;;;;;;;14.69;47.39;99396.29;107945;1288;21986;-67
2023/03/10 04:10:50;;;;;;;6.60;3.20;;;;;;;14.60;47.52;99395.25;107815;1288;23772;-70
2023/03/10 04:13:19;;;;;;;5.40;3.00;;;;;;;14.50;48.01;99402.23;107928;1288;21989;-67
2023/03/10 04:15:45;;;;;;;5.80;3.10;;;;;;;14.40;48.47;99406.89;107908;1289;22765;-67
2023/03/10 04:18:11;;;;;;;7.00;3.40;;;;;;;14.34;48.23;99406.08;107958;1288;21986;-70
2023/03/10 04:20:37;;;;;;;5.80;2.90;;;;;;;14.29;47.89;99405.41;107969;1289;21995;-68
2023/03/10 04:23:03;;;;;;;6.20;3.30;;;;;;;14.23;47.90;99409.36;108020;1286;23487;-70
2023/03/10 04:25:32;;;;;;;6.10;3.20;;;;;;;14.16;48.22;99412.85;107911;1288;21999;-67
2023/03/10 04:27:58;;;;;;;4.90;3.00;;;;;;;14.12;48.50;99416.73;107945;1288;22017;-67
2023/03/10 04:30:28;;;;;;;5.80;3.10;;;;;;;14.09;48.46;99422.48;107898;1285;21992;-70
2023/03/10 04:32:58;;;;;;;5.90;3.10;;;;;;;14.09;48.26;99426.55;108024;1288;21995;-68
2023/03/10 04:35:24;;;;;;;5.40;3.30;;;;;;;14.03;48.86;99429.80;107997;1288;21980;-68
2023/03/10 04:37:52;;;;;;;7.20;3.20;;;;;;;13.96;48.66;99437.30;107989;1286;22004;-71
2023/03/10 04:40:18;;;;;;;8.60;3.50;;;;;;;13.92;48.39;99441.35;105565;1289;1002506;-70
2023/03/10 04:42:43;;;;;;;22.30;4.30;;;;;;;13.90;48.19;99448.34;107854;1289;22002;-68
2023/03/10 04:45:10;;;;;;;8.10;3.40;;;;;;;13.89;48.24;99443.09;107974;1289;21993;-66
2023/03/10 04:47:36;;;;;;;5.30;3.20;;;;;;;13.86;48.79;99446.38;108049;1288;21990;-67
2023/03/10 04:50:05;;;;;;;4.70;2.80;;;;;;;13.81;48.62;99447.45;107949;1288;21990;-67
2023/03/10 04:52:31;;;;;;;6.90;2.90;;;;;;;13.81;48.74;99454.66;108039;1289;22001;-67
2023/03/10 04:54:56;;;;;;;9.80;3.40;;;;;;;13.82;49.54;99455.86;107822;1290;23611;-66
2023/03/10 04:57:23;;;;;;;7.50;3.70;;;;;;;13.86;49.48;99458.88;107792;1289;22006;-67
2023/03/10 04:59:50;;;;;;;8.10;3.20;;;;;;;13.90;49.73;99471.77;107877;1290;21986;-67
2023/03/10 05:02:16;;;;;;;5.70;2.90;;;;;;;13.94;49.91;99474.94;108018;1289;21989;-67
2023/03/10 05:04:42;;;;;;;5.10;2.70;;;;;;;14.03;49.88;99474.77;107998;1288;21985;-69
2023/03/10 05:07:08;;;;;;;5.20;2.90;;;;;;;14.13;49.91;99482.99;107907;1288;21993;-70
2023/03/10 05:09:36;;;;;;;4.90;2.90;;;;;;;14.19;49.86;99485.77;108072;1288;22052;-68
2023/03/10 05:12:03;;;;;;;5.60;3.50;;;;;;;14.24;49.37;99487.32;107928;1289;22043;-69
2023/03/10 05:14:35;;;;;;;5.60;3.20;;;;;;;14.25;49.64;99485.69;107756;1285;23065;-67
2023/03/10 05:17:01;;;;;;;6.30;3.10;;;;;;;14.26;49.69;99492.19;107874;1288;23641;-65
2023/03/10 05:19:28;;;;;;;7.30;3.30;;;;;;;14.32;49.25;99494.23;107979;1289;21993;-67
2023/03/10 05:21:54;;;;;;;5.80;3.20;;;;;;;14.35;49.74;99495.70;108028;1288;23640;-67
2023/03/10 05:24:21;;;;;;;4.90;3.70;;;;;;;14.43;49.77;99496.95;105749;1289;1002970;-68
2023/03/10 05:26:47;;;;;;;6.30;3.80;;;;;;;14.48;50.58;99500.43;107971;1288;21990;-66
2023/03/10 05:29:13;;;;;;;8.10;3.20;;;;;;;14.60;50.61;99497.98;107893;1281;22087;-62
2023/03/10 05:31:40;;;;;;;5.70;3.30;;;;;;;14.72;50.97;99502.24;107842;1290;22005;-68
2023/03/10 05:34:07;;;;;;;7.30;3.80;;;;;;;14.84;51.33;99505.48;107996;1290;21999;-66
2023/03/10 05:36:34;;;;;;;8.30;4.00;;;;;;;14.95;51.59;99506.60;107723;1290;24931;-67
2023/03/10 05:38:59;;;;;;;7.40;3.90;;;;;;;15.06;51.70;99511.37;107842;1289;21995;-64
2023/03/10 05:41:25;;;;;;;7.40;3.90;;;;;;;15.21;51.44;99513.02;107777;1289;22068;-66
2023/03/10 05:43:51;;;;;;;8.70;3.90;;;;;;;15.35;51.41;99506.89;107772;1290;22458;-67
2023/03/10 05:46:22;;;;;;;6.60;4.20;;;;;;;15.48;51.18;99503.81;107813;1289;22001;-68
2023/03/10 05:48:48;;;;;;;7.50;3.70;;;;;;;15.67;50.64;99505.42;107763;1288;21990;-67
2023/03/10 05:51:14;;;;;;;9.30;4.60;;;;;;;15.85;50.29;99519.99;107812;1289;21997;-67
2023/03/10 05:53:40;;;;;;;6.80;4.10;;;;;;;15.97;50.32;99525.62;107818;1288;21990;-66
2023/03/10 05:56:11;;;;;;;6.90;3.70;;;;;;;16.09;50.00;99531.08;108042;1289;22052;-66
2023/03/10 05:58:37;;;;;;;9.70;4.60;;;;;;;16.18;49.76;99533.10;107854;1290;22028;-68
2023/03/10 06:01:03;;;;;;;7.00;4.10;;;;;;;16.27;49.48;99537.63;107847;1288;21982;-67
2023/03/10 06:03:30;;;;;;;9.20;4.40;;;;;;;16.38;49.21;99545.74;107937;1289;22009;-66
2023/03/10 06:05:56;;;;;;;10.10;4.90;;;;;;;16.46;49.25;99549.59;107055;1289;1001975;-67
2023/03/10 06:08:23;;;;;;;9.30;5.00;;;;;;;16.54;49.24;99554.70;107974;1288;21988;-67
2023/03/10 06:10:49;;;;;;;8.30;4.90;;;;;;;16.68;48.89;99555.60;107958;1289;21987;-67
2023/03/10 06:13:18;;;;;;;9.20;5.10;;;;;;;16.84;48.59;99559.77;108029;1288;21992;-66
2023/03/10 06:15:52;;;;;;;8.40;5.50;;;;;;;16.97;48.23;99560.73;107851;1290;21992;-66
2023/03/10 06:18:18;;;;;;;7.30;4.40;;;;;;;17.01;48.08;99561.73;107920;1289;22032;-67
2023/03/10 06:20:44;;;;;;;7.00;4.40;;;;;;;17.02;47.67;99562.77;107825;1289;21994;-68
2023/03/10 06:23:10;;;;;;;10.00;4.50;;;;;;;17.05;47.41;99564.54;107947;1290;21987;-67
2023/03/10 06:25:36;;;;;;;5.90;3.80;;;;;;;17.17;47.06;99572.98;107926;1290;22009;-67
2023/03/10 06:28:02;;;;;;;7.70;4.20;;;;;;;17.26;46.87;99577.80;107835;1290;22001;-65
2023/03/10 06:30:28;;;;;;;5.70;4.00;;;;;;;17.35;46.58;99576.64;107837;1289;21990;-68
2023/03/10 06:32:54;;;;;;;6.60;3.90;;;;;;;17.50;46.82;99575.69;107890;1290;21993;-66
2023/03/10 06:35:20;;;;;;;6.30;4.30;;;;;;;17.63;46.44;99579.41;107898;1290;21993;-68
2023/03/10 06:37:45;;;;;;;8.00;4.40;;;;;;;17.76;46.35;99578.52;107898;1290;21993;-67
2023/03/10 06:40:12;;;;;;;7.40;4.60;;;;;;;17.90;46.30;99579.34;107890;1290;21995;-67
2023/03/10 06:42:41;;;;;;;6.60;4.00;;;;;;;18.02;45.96;99578.86;107852;1290;21996;-66
2023/03/10 06:45:08;;;;;;;7.70;4.10;;;;;;;18.08;45.33;99579.99;107888;1289;21989;-67
2023/03/10 06:47:34;;;;;;;6.20;4.30;;;;;;;18.19;45.09;99577.77;108022;1289;22341;-69
2023/03/10 06:50:00;;;;;;;7.20;4.10;;;;;;;18.29;45.00;99575.98;107909;1286;23615;-69
2023/03/10 06:52:26;;;;;;;5.90;4.20;;;;;;;18.42;44.78;99578.63;107968;1288;21992;-67
2023/03/10 06:54:53;;;;;;;5.00;3.50;;;;;;;18.54;44.67;99578.60;107913;1287;22167;-66
2023/03/10 06:57:18;;;;;;;5.80;3.60;;;;;;;18.61;44.13;99577.86;107893;1288;22453;-72
2023/03/10 06:59:44;;;;;;;6.80;4.40;;;;;;;18.66;43.91;99581.63;107816;1287;21996;-68
2023/03/10 07:02:11;;;;;;;9.00;3.80;;;;;;;18.74;43.94;99586.34;108223;1286;21995;-70
2023/03/10 07:04:37;;;;;;;7.20;4.30;;;;;;;18.83;43.60;99587.02;107892;1288;21987;-67
2023/03/10 07:07:06;;;;;;;10.80;4.70;;;;;;;18.89;43.15;99590.08;107898;1289;21990;-67
2023/03/10 07:09:32;;;;;;;7.80;4.90;;;;;;;18.96;43.01;99592.05;107954;1289;21995;-67
2023/03/10 07:11:59;;;;;;;6.90;4.60;;;;;;;19.02;42.99;99595.90;107939;1289;21995;-68
2023/03/10 07:14:25;;;;;;;6.80;4.60;;;;;;;19.12;42.92;99597.48;107862;1283;22151;-67
2023/03/10 07:16:50;;;;;;;6.10;4.20;;;;;;;19.26;42.98;99597.52;107897;1289;21989;-70
2023/03/10 07:19:17;;;;;;;6.10;3.60;;;;;;;19.40;42.72;99596.48;107886;1289;21990;-68
2023/03/10 07:21:43;;;;;;;5.90;3.90;;;;;;;19.54;42.41;99594.04;107840;1289;22002;-68
2023/03/10 07:24:08;;;;;;;6.30;4.20;;;;;;;19.75;42.64;99590.78;107822;1288;21991;-67
2023/03/10 07:26:34;;;;;;;6.70;3.90;;;;;;;19.98;42.43;99592.04;107962;1289;21957;-69
2023/03/10 07:29:01;;;;;;;4.90;3.60;;;;;;;20.13;42.24;99593.00;107987;1288;22066;-69
2023/03/10 07:31:27;;;;;;;5.70;3.50;;;;;;;20.17;41.82;99595.95;107872;1289;22020;-68
2023/03/10 07:33:55;;;;;;;6.30;4.00;;;;;;;20.25;41.96;99597.78;108043;1288;23746;-70
2023/03/10 07:36:22;;;;;;;6.60;3.90;;;;;;;20.33;41.71;99593.48;108007;1289;22032;-70
2023/03/10 07:38:48;;;;;;;5.40;4.00;;;;;;;20.48;41.52;99596.46;107817;1290;22006;-69
2023/03/10 07:41:16;;;;;;;6.40;3.90;;;;;;;20.59;41.15;99596.59;107901;1290;21988;-69
2023/03/10 07:43:41;;;;;;;6.00;3.60;;;;;;;20.75;41.22;99595.55;107888;1290;23057;-67
2023/03/10 07:46:09;;;;;;;4.30;3.20;;;;;;;20.92;40.92;99601.36;107823;1290;22262;-67
2023/03/10 07:48:34;;;;;;;7.90;4.60;;;;;;;21.14;40.93;99602.05;107972;1288;22000;-70
2023/03/10 07:51:01;;;;;;;9.10;5.00;;;;;;;21.38;40.31;99603.24;108039;1289;21987;-67
2023/03/10 07:53:28;;;;;;;6.60;4.20;;;;;;;21.61;40.36;99604.73;107993;1288;21961;-69
2023/03/10 07:55:53;;;;;;;5.50;3.60;;;;;;;21.93;40.54;99607.29;107971;1288;22024;-70
2023/03/10 07:58:19;;;;;;;5.40;3.60;;;;;;;22.29;40.21;99608.44;107960;1288;21995;-68
2023/03/10 08:00:45;;;;;;;4.10;3.00;;;;;;;22.54;39.83;99606.60;107933;1288;21988;-69
2023/03/10 08:03:11;;;;;;;3.70;2.90;;;;;;;22.86;40.08;99605.46;108174;1289;1002305;-70
2023/03/10 08:05:40;;;;;;;4.50;2.90;;;;;;;23.20;39.85;99603.27;107977;1288;21991;-67
2023/03/10 08:08:06;;;;;;;8.30;3.70;;;;;;;23.35;38.69;99604.10;107961;1288;21999;-70
2023/03/10 08:10:32;;;;;;;5.60;3.80;;;;;;;23.27;38.62;99604.38;107813;1288;22007;-70
2023/03/10 08:12:59;;;;;;;4.60;3.20;;;;;;;23.20;38.03;99604.85;107957;1289;23612;-70
2023/03/10 08:15:25;;;;;;;6.20;4.10;;;;;;;23.14;37.67;99604.59;107964;1288;21990;-69
2023/03/10 08:17:55;;;;;;;4.10;3.20;;;;;;;23.27;38.33;99603.48;107802;1290;21998;-67
2023/03/10 08:20:21;;;;;;;4.00;2.90;;;;;;;23.55;38.11;99602.89;107803;1290;22051;-67
2023/03/10 08:22:47;;;;;;;4.40;2.90;;;;;;;23.94;38.02;99596.27;107809;1290;21997;-67
2023/03/10 08:25:13;;;;;;;5.10;2.70;;;;;;;24.27;37.32;99591.64;107893;1289;21982;-69
2023/03/10 08:27:40;;;;;;;7.70;3.10;;;;;;;24.58;37.82;99593.23;107953;1288;21994;-69
2023/03/10 08:30:08;;;;;;;5.10;3.10;;;;;;;24.92;37.28;99597.42;107965;1288;21990;-67
2023/03/10 08:32:35;;;;;;;25.40;10.90;;;;;;;25.08;36.29;99596.60;108203;1285;22001;-70
2023/03/10 08:35:00;;;;;;;29.20;12.60;;;;;;;25.00;35.24;99596.68;107999;1288;22177;-66
2023/03/10 08:37:31;;;;;;;16.30;8.30;;;;;;;24.88;34.77;99597.73;108030;1288;22158;-71
2023/03/10 08:39:57;;;;;;;10.20;7.10;;;;;;;24.80;34.92;99603.93;108037;1287;21991;-67
2023/03/10 08:42:23;;;;;;;10.70;4.10;;;;;;;24.76;35.31;99613.05;108431;1288;22147;-65
2023/03/10 08:44:49;;;;;;;4.90;3.50;;;;;;;24.92;35.30;99616.91;107959;1286;21989;-66
2023/03/10 08:47:15;;;;;;;4.90;2.30;;;;;;;25.09;34.79;99619.29;107978;1288;21995;-65
2023/03/10 08:49:45;;;;;;;4.10;2.60;;;;;;;25.28;35.16;99622.53;108069;1288;23829;-64
2023/03/10 08:52:11;;;;;;;5.70;2.90;;;;;;;25.47;33.91;99623.83;108158;1288;21986;-65
2023/03/10 08:54:37;;;;;;;3.90;2.30;;;;;;;25.45;33.27;99623.60;108080;1280;21998;-65
2023/03/10 08:57:03;;;;;;;3.70;2.70;;;;;;;25.59;34.62;99620.58;108069;1288;23427;-65
2023/03/10 08:59:29;;;;;;;4.70;2.70;;;;;;;25.88;34.90;99617.38;108078;1287;21995;-66
2023/03/10 09:01:56;;;;;;;4.70;2.80;;;;;;;26.15;34.04;99610.99;107995;1288;21994;-65
2023/03/10 09:04:22;;;;;;;3.00;2.30;;;;;;;26.38;33.39;99609.12;107970;1288;22454;-65
2023/03/10 09:06:48;;;;;;;3.70;2.50;;;;;;;26.49;33.35;99611.96;107981;1288;21986;-65
2023/03/10 09:09:13;;;;;;;3.70;2.70;;;;;;;26.39;31.62;99612.66;108015;1288;22001;-66
2023/03/10 09:11:40;;;;;;;4.30;2.40;;;;;;;26.21;31.03;99616.95;108030;1286;21995;-65
2023/03/10 09:14:06;;;;;;;3.90;2.30;;;;;;;26.29;32.26;99618.46;108052;1288;21995;-67
2023/03/10 09:16:33;;;;;;;3.90;2.40;;;;;;;26.25;31.54;99623.44;108032;1288;21988;-64
2023/03/10 09:19:00;;;;;;;4.50;2.60;;;;;;;26.31;31.96;99628.52;108051;1288;21995;-65
2023/03/10 09:21:26;;;;;;;4.90;2.20;;;;;;;26.35;31.40;99633.20;108074;1286;22157;-68
2023/03/10 09:23:52;;;;;;;4.80;2.90;;;;;;;26.33;30.52;99636.08;108023;1287;22718;-66
2023/03/10 09:26:19;;;;;;;4.70;2.50;;;;;;;26.25;30.71;99633.86;108031;1288;21994;-67
2023/03/10 09:28:49;;;;;;;3.80;2.10;;;;;;;26.12;29.83;99627.50;108055;1287;21992;-65
2023/03/10 09:31:21;;;;;;;4.20;2.60;;;;;;;26.06;31.48;99623.50;108067;1288;21990;-68
2023/03/10 09:33:48;;;;;;;5.20;2.20;;;;;;;26.21;32.07;99621.12;108073;1288;22029;-68
2023/03/10 09:36:15;;;;;;;5.20;2.40;;;;;;;26.43;32.04;99615.94;108083;1287;22352;-69
2023/03/10 09:38:41;;;;;;;4.40;2.30;;;;;;;26.73;31.75;99612.08;107953;1287;23676;-66
2023/03/10 09:41:12;;;;;;;3.90;2.60;;;;;;;26.86;31.04;99612.52;108037;1288;21996;-67
2023/03/10 09:43:43;;;;;;;9.30;2.30;;;;;;;26.93;31.05;99615.55;107989;1287;21998;-66
2023/03/10 09:46:19;;;;;;;9.30;2.40;;;;;;;27.02;31.31;99618.86;108085;1288;23705;-67
2023/03/10 09:48:54;;;;;;;4.60;2.40;;;;;;;27.07;31.53;99617.23;108098;1286;21995;-66
2023/03/10 09:51:21;;;;;;;4.50;1.70;;;;;;;27.44;31.81;99612.52;108163;1288;21987;-66
2023/03/10 09:53:53;;;;;;;3.30;2.20;;;;;;;27.93;31.94;99611.48;108119;1288;21993;-67
2023/03/10 09:56:22;;;;;;;3.10;1.80;;;;;;;28.39;31.59;99618.15;108621;1287;21961;-67
2023/03/10 09:58:49;;;;;;;4.00;2.00;;;;;;;28.73;31.34;99620.05;108166;1288;21989;-66
2023/03/10 10:01:18;;;;;;;3.60;2.30;;;;;;;28.88;30.93;99620.20;108168;1288;21986;-67
2023/03/10 10:03:48;;;;;;;5.10;2.00;;;;;;;29.06;31.12;99612.55;108156;1288;21991;-66
2023/03/10 10:06:35;;;;;;;3.20;1.80;;;;;;;29.30;31.28;99608.52;108042;1288;21989;-68
2023/03/10 10:09:03;;;;;;;3.70;2.10;;;;;;;29.55;31.14;99602.92;107997;1289;21987;-68
2023/03/10 10:11:29;;;;;;;2.70;1.80;;;;;;;29.57;29.13;99603.34;108029;1288;21987;-68
2023/03/10 10:14:17;;;;;;;2.90;1.80;;;;;;;29.33;29.67;99605.69;108006;1288;21993;-67
2023/03/10 10:16:47;;;;;;;3.50;1.60;;;;;;;29.38;29.25;99609.36;108131;1288;22375;-66
2023/03/10 10:19:14;;;;;;;;;;;;;;;29.35;28.87;99613.42;108115;1288;21974;-67
2023/03/10 10:21:42;;;;;;;5.90;1.60;;;;;;;29.25;28.66;99606.88;108156;1288;21986;-67
2023/03/10 10:24:08;;;;;;;2.30;1.40;;;;;;;28.99;27.87;99605.14;107988;1287;21991;-67
2023/03/10 10:26:35;;;;;;;4.30;1.40;;;;;;;28.88;28.49;99604.52;107882;1288;21996;-67
2023/03/10 10:29:05;;;;;;;3.70;1.70;;;;;;;29.09;28.94;99597.67;108027;1288;22004;-68
2023/03/10 10:31:31;;;;;;;2.70;1.50;;;;;;;29.35;28.75;99592.94;107848;1289;21987;-67
2023/03/10 10:33:59;;;;;;;12.50;2.70;;;;;;;29.61;29.29;99587.06;107955;1288;21989;-68
2023/03/10 10:36:47;;;;;;;4.40;1.60;;;;;;;29.86;29.73;99576.66;108029;1288;21999;-67
2023/03/10 10:39:33;;;;;;;2.50;1.40;;;;;;;30.08;28.88;99568.52;108081;1288;21989;-67
2023/03/10 10:42:24;;;;;;;7.60;1.60;;;;;;;30.04;29.05;99567.18;108014;1288;21985;-67
2023/03/10 10:45:24;;;;;;;3.90;1.40;;;;;;;30.25;29.07;99561.63;107957;1288;21993;-67
2023/03/10 10:47:50;;;;;;;7.70;1.70;;;;;;;30.47;28.27;99555.45;108068;1288;22461;-67
2023/03/10 10:50:26;;;;;;;4.30;1.50;;;;;;;30.55;28.43;99549.56;108101;1288;21976;-67
2023/03/10 10:53:14;;;;;;;4.70;1.80;;;;;;;30.66;28.56;99553.45;108131;1288;21986;-67
2023/03/10 10:55:41;;;;;;;1.90;1.10;;;;;;;30.78;28.63;99549.77;108131;1286;21992;-67
2023/03/10 10:58:30;;;;;;;3.80;1.20;;;;;;;30.91;28.78;99541.89;108048;1285;21990;-67
2023/03/10 11:00:58;;;;;;;2.40;1.40;;;;;;;31.20;28.66;99536.28;107972;1288;22009;-67
2023/03/10 11:03:35;;;;;;;3.80;1.50;;;;;;;31.48;28.40;99531.68;108056;1288;22159;-67
2023/03/10 11:06:33;;;;;;;2.60;1.30;;;;;;;31.67;28.61;99530.62;108023;1288;21985;-67
2023/03/10 11:09:10;;;;;;;2.70;1.20;;;;;;;31.94;28.17;99527.91;108056;1288;22046;-66
2023/03/10 11:11:59;;;;;;;2.60;1.40;;;;;;;32.14;28.41;99523.98;107931;1288;21990;-67
2023/03/10 11:14:48;;;;;;;3.90;1.60;;;;;;;32.23;26.55;99515.52;107900;1288;24372;-67
2023/03/10 11:17:30;;;;;;;1.60;1.30;;;;;;;32.11;27.05;99511.27;108063;1288;22004;-66
2023/03/10 11:20:22;;;;;;;2.60;1.40;;;;;;;32.18;27.56;99506.23;107982;1288;21994;-67
2023/03/10 11:23:16;;;;;;;2.40;1.60;;;;;;;32.16;27.29;99507.20;108051;1288;21988;-66
2023/03/10 11:25:46;;;;;;;3.60;1.40;;;;;;;32.20;27.23;99498.05;107999;1288;21996;-65
2023/03/10 11:28:17;;;;;;;2.50;1.00;;;;;;;32.27;27.36;99495.24;108006;1287;21977;-66
2023/03/10 11:30:55;;;;;;;3.00;1.30;;;;;;;32.39;27.28;99494.80;107923;1288;21996;-66
2023/03/10 11:33:39;;;;;;;2.50;1.20;;;;;;;32.37;26.47;99491.14;108026;1280;21992;-66
2023/03/10 11:36:51;;;;;;;1.70;1.40;;;;;;;32.18;25.14;99479.42;108028;1288;22064;-67
2023/03/10 11:39:52;;;;;;;2.30;1.00;;;;;;;32.01;26.37;99471.83;107948;1288;23660;-66
2023/03/10 11:42:47;;;;;;;3.10;1.30;;;;;;;32.13;26.84;99470.95;107811;1288;21990;-68
2023/03/10 11:45:27;;;;;;;1.60;1.20;;;;;;;32.41;27.07;99470.33;107966;1288;23569;-67
2023/03/10 11:48:16;;;;;;;1.80;1.30;;;;;;;32.68;27.25;99465.90;108002;1288;22014;-67
2023/03/10 11:50:58;;;;;;;2.40;1.50;;;;;;;32.88;26.59;99450.73;107993;1286;21992;-67
2023/03/10 11:53:38;;;;;;;2.20;1.40;;;;;;;32.92;26.92;99441.59;108057;1288;21991;-68
2023/03/10 11:56:05;;;;;;;;;;;;;;;33.02;26.61;99438.05;108021;1288;21981;-67
2023/03/10 11:58:52;;;;;;;2.50;1.50;;;;;;;32.89;25.85;99441.19;108103;1282;22004;-67
2023/03/10 12:01:31;;;;;;;1.70;1.20;;;;;;;32.74;26.55;99444.11;108111;1280;21989;-67
2023/03/10 12:04:20;;;;;;;3.40;1.30;;;;;;;32.80;26.27;99445.70;107991;1287;21995;-68
2023/03/10 12:07:06;;;;;;;;;;;;;;;32.86;26.04;99444.71;107883;1288;21968;-68
2023/03/10 12:09:38;;;;;;;4.90;1.40;;;;;;;32.97;26.45;99448.39;107983;1288;22027;-67
2023/03/10 12:12:04;;;;;;;2.30;1.10;;;;;;;33.11;26.53;99450.24;108014;1288;22088;-67
2023/03/10 12:14:31;;;;;;;5.70;1.40;;;;;;;33.19;26.30;99453.20;108024;1288;21995;-65
2023/03/10 12:16:57;;;;;;;2.70;1.30;;;;;;;33.16;26.65;99455.63;108046;1288;21992;-64
2023/03/10 12:19:23;;;;;;;2.40;1.30;;;;;;;33.20;26.86;99456.87;107850;1288;21990;-63
2023/03/10 12:22:20;;;;;;;2.40;1.10;;;;;;;33.22;26.49;99454.96;107822;1288;21999;-64
2023/03/10 12:24:46;;;;;;;1.70;1.10;;;;;;;33.14;26.18;99453.14;107987;1288;21991;-66
2023/03/10 12:27:15;;;;;;;2.40;1.40;;;;;;;32.96;25.82;99448.88;107994;1288;22074;-67
2023/03/10 12:29:42;;;;;;;2.60;1.40;;;;;;;32.78;26.01;99450.00;107849;1288;21995;-64
2023/03/10 12:32:40;;;;;;;2.70;1.10;;;;;;;32.69;26.41;99448.88;108032;1288;22001;-67
2023/03/10 12:35:48;;;;;;;3.30;1.20;;;;;;;32.63;26.62;99450.09;108124;1288;21996;-66
2023/03/10 12:38:28;;;;;;;4.50;1.30;;;;;;;32.56;26.80;99448.08;109956;1288;21934;-66
2023/03/10 12:40:54;;;;;;;3.00;1.30;;;;;;;32.57;26.60;99449.98;107998;1288;22173;-64
2023/03/10 12:43:37;;;;;;;3.90;1.30;;;;;;;32.60;26.56;99447.27;108026;1288;22046;-64
2023/03/10 12:46:06;;;;;;;1.50;0.90;;;;;;;32.59;26.56;99445.88;108143;1288;21990;-64
2023/03/10 12:48:32;;;;;;;2.00;1.20;;;;;;;32.44;25.35;99445.67;108190;1288;21992;-65
2023/03/10 12:51:03;;;;;;;10.10;1.30;;;;;;;32.11;24.83;99449.37;107814;1288;22051;-67
2023/03/10 12:54:05;;;;;;;4.00;1.50;;;;;;;31.82;25.21;99450.45;107958;1288;23613;-65
2023/03/10 12:56:38;;;;;;;2.00;1.30;;;;;;;31.39;23.44;99451.54;107264;1288;1002484;-65
2023/03/10 12:59:13;;;;;;;2.10;1.20;;;;;;;30.78;25.42;99450.95;108029;1288;21995;-65
2023/03/10 13:01:41;;;;;;;4.50;1.40;;;;;;;30.71;26.27;99445.77;108010;1288;22158;-67
2023/03/10 13:04:10;;;;;;;4.60;1.10;;;;;;;30.88;26.44;99441.73;107738;1288;21993;-65
2023/03/10 13:06:37;;;;;;;2.50;1.20;;;;;;;30.96;24.87;99439.73;107898;1288;22153;-68
2023/03/10 13:09:15;;;;;;;3.20;1.00;;;;;;;30.62;24.49;99441.53;108044;1288;22004;-68
2023/03/10 13:11:54;;;;;;;1.90;1.10;;;;;;;30.23;25.62;99443.02;108017;1288;21995;-66
2023/03/10 13:14:22;;;;;;;2.00;1.20;;;;;;;30.14;26.14;99441.19;107264;1288;1002309;-68
2023/03/10 13:16:54;;;;;;;2.80;1.20;;;;;;;30.11;26.62;99438.20;107995;1288;22022;-68
2023/03/10 13:19:24;;;;;;;3.20;1.50;;;;;;;30.11;26.54;99442.70;108042;1282;23153;-65
2023/03/10 13:21:50;;;;;;;2.00;1.20;;;;;;;30.09;25.87;99445.31;107831;1288;22002;-67
2023/03/10 13:24:25;;;;;;;2.20;1.20;;;;;;;30.01;26.12;99445.42;107961;1284;21995;-68
2023/03/10 13:27:12;;;;;;;2.50;1.00;;;;;;;29.99;26.61;99445.67;108075;1288;22110;-65
2023/03/10 13:29:38;;;;;;;2.60;1.50;;;;;;;30.09;25.27;99441.63;108037;1280;21995;-65
2023/03/10 13:32:04;;;;;;;7.10;1.60;;;;;;;30.04;25.84;99440.20;107292;1288;1003356;-65
2023/03/10 13:34:31;;;;;;;6.80;1.10;;;;;;;30.02;24.67;99434.99;108035;1288;21995;-67
2023/03/10 13:37:07;;;;;;;5.30;1.50;;;;;;;29.94;25.73;99427.69;108053;1288;21998;-68
2023/03/10 13:39:33;;;;;;;4.70;0.90;;;;;;;30.14;26.51;99426.27;107917;1286;21993;-68
2023/03/10 13:42:04;;;;;;;3.20;0.90;;;;;;;30.41;25.47;99422.58;107992;1288;21997;-66
2023/03/10 13:44:37;;;;;;;7.50;1.30;;;;;;;30.50;25.21;99424.32;107835;1288;21989;-65
2023/03/10 13:47:12;;;;;;;4.30;1.40;;;;;;;30.54;25.51;99420.05;107898;1288;21992;-68
2023/03/10 13:49:39;;;;;;;6.40;1.30;;;;;;;30.68;26.01;99417.16;108126;1288;22013;-65
2023/03/10 13:52:07;;;;;;;9.10;1.30;;;;;;;30.89;26.03;99412.19;107825;1288;21997;-68
2023/03/10 13:54:39;;;;;;;3.20;1.30;;;;;;;31.12;25.40;99414.14;108055;1288;22165;-68
2023/03/10 13:57:17;;;;;;;20.60;8.30;;;;;;;30.93;23.46;99417.42;108142;1288;21960;-65
2023/03/10 13:59:43;;;;;;;4.20;2.20;;;;;;;30.45;23.58;99423.09;107976;1288;21992;-65
2023/03/10 14:02:33;;;;;;;2.80;1.10;;;;;;;29.89;23.10;99429.17;107986;1289;23712;-69
2023/03/10 14:04:59;;;;;;;2.00;1.00;;;;;;;29.32;23.55;99435.98;107754;1289;21963;-67
2023/03/10 14:07:35;;;;;;;2.40;1.40;;;;;;;28.91;24.08;99440.20;108060;1288;23643;-68
2023/03/10 14:10:02;;;;;;;2.50;1.10;;;;;;;28.57;24.02;99439.60;108012;1288;21991;-65
2023/03/10 14:12:51;;;;;;;1.60;1.00;;;;;;;28.27;23.83;99442.77;108132;1288;22007;-68
2023/03/10 14:15:26;;;;;;;5.60;1.60;;;;;;;28.01;24.32;99438.92;108095;1288;21996;-66
2023/03/10 14:18:12;;;;;;;3.00;1.40;;;;;;;27.84;23.89;99436.62;108282;1288;23048;-65
2023/03/10 14:20:39;;;;;;;5.50;1.20;;;;;;;27.63;23.67;99432.02;108128;1288;21986;-65
2023/03/10 14:23:18;;;;;;;6.80;1.60;;;;;;;27.53;24.47;99431.42;108126;1288;22007;-62
2023/03/10 14:25:45;;;;;;;15.90;2.40;;;;;;;27.53;23.69;99431.33;108272;1288;22638;-64
2023/03/10 14:28:22;;;;;;;5.70;1.40;;;;;;;27.52;24.27;99429.85;107879;1289;21988;-66
2023/03/10 14:30:48;;;;;;;29.70;11.20;;;;;;;27.54;23.90;99431.23;107966;1286;22011;-67
2023/03/10 14:33:15;;;;;;;20.00;5.20;;;;;;;27.50;24.68;99432.58;108145;1288;22618;-68
2023/03/10 14:35:41;;;;;;;4.50;2.10;;;;;;;27.64;25.54;99429.61;108002;1281;21995;-67
2023/03/10 14:38:10;;;;;;;12.00;2.30;;;;;;;27.79;25.21;99430.47;108058;1288;22037;-67
2023/03/10 14:40:40;;;;;;;25.30;17.10;;;;;;;27.87;23.94;99439.52;107272;1288;1002786;-67
2023/03/10 14:43:05;;;;;;;30.30;24.60;;;;;;;27.70;23.99;99441.59;108130;1288;21992;-67